Time;durP1;ratioP1;P1;durP2;ratioP2;P2;SDS_P1;SDS_P2;PMS_P1;PMS_P2;Temp;Humidity;BMP_temperature;BMP_pressure;BME280_temperature;BME280_humidity;BME280_pressure;Samples;Min_cycle;Max_cycle;Signal;HPM_P1;HPM_P2
2021/12/01 00:06:20;;;;;;;0.65;0.60;;;;;;;5.06;97.60;98819.81;1934978;73;20211;-75
2021/12/01 00:10:16;;;;;;;0.51;0.51;;;;;;;5.07;97.69;98803.50;1930211;84;20369;-75
2021/12/01 00:18:16;;;;;;;0.43;0.43;;;;;;;5.04;97.85;98790.63;1930691;73;97990;-75
2021/12/01 00:22:28;;;;;;;2.09;1.92;;;;;;;5.02;97.93;98781.16;1929007;84;21180;-75
2021/12/01 00:30:10;;;;;;;0.44;0.44;;;;;;;5.02;98.15;98779.44;1925746;84;20353;-75
2021/12/01 00:33:17;;;;;;;;;;;;;;;5.02;98.29;98768.28;1988568;73;33105;-75
2021/12/01 00:36:56;;;;;;;0.81;0.50;;;;;;;4.99;98.16;98763.97;1931725;84;20537;-75
2021/12/01 00:41:10;;;;;;;0.54;0.54;;;;;;;4.98;98.17;98761.41;1930646;84;20375;-76
2021/12/01 00:58:16;;;;;;;0.60;0.60;;;;;;;4.70;96.99;98740.63;1931975;73;20372;-76
2021/12/01 01:01:59;;;;;;;1.42;0.83;;;;;;;4.63;96.73;98737.97;1376137;81;51611978;-76
2021/12/01 01:19:06;;;;;;;1.45;1.31;;;;;;;4.42;96.82;98721.50;1921550;84;20380;-75
2021/12/01 01:26:09;;;;;;;1.24;1.14;;;;;;;4.36;96.46;98702.63;1934025;73;20376;-76
2021/12/01 01:30:00;;;;;;;2.70;1.70;;;;;;;4.32;96.63;98696.59;1932026;84;20825;-75
2021/12/01 01:42:51;;;;;;;2.25;2.05;;;;;;;4.31;96.98;98676.88;1931678;84;21123;-76
2021/12/01 01:50:49;;;;;;;2.58;2.38;;;;;;;4.30;97.11;98658.84;1928047;84;20241;-76
2021/12/01 01:54:06;;;;;;;3.05;2.78;;;;;;;4.30;97.26;98646.88;1931345;84;20471;-76
2021/12/01 02:06:35;;;;;;;;;;;;;;;;;;;;;
2021/12/01 02:14:30;;;;;;;3.65;3.36;;;;;;;4.30;97.44;98643.44;1932178;73;20210;-75
2021/12/01 02:30:33;;;;;;;2.64;2.44;;;;;;;4.34;97.41;98612.66;1928650;81;163549;-76
2021/12/01 02:38:37;;;;;;;3.06;2.86;;;;;;;4.31;97.42;98580.91;1931831;73;20504;-76
2021/12/01 02:59:47;;;;;;;2.61;2.41;;;;;;;4.31;97.20;98529.53;1933479;73;20435;-76
2021/12/01 03:08:49;;;;;;;2.54;2.34;;;;;;;4.30;97.33;98513.25;1929552;84;20398;-76
2021/12/01 03:21:20;;;;;;;2.66;2.08;;;;;;;4.37;97.26;98476.47;1930468;73;20357;-76
2021/12/01 03:55:39;;;;;;;3.74;2.13;;;;;;;4.41;97.00;98392.53;1934316;84;20451;-76
2021/12/01 03:58:42;;;;;;;2.75;2.51;;;;;;;4.38;96.53;98387.38;1935176;84;20383;-76
2021/12/01 04:01:44;;;;;;;4.05;3.05;;;;;;;4.37;96.39;98375.41;1935513;81;23328;-76
2021/12/01 04:04:47;;;;;;;3.60;2.51;;;;;;;4.35;96.11;98361.69;1931357;84;20378;-76
2021/12/01 04:07:50;;;;;;;4.04;3.34;;;;;;;4.38;95.87;98356.56;1934999;84;20429;-76
2021/12/01 04:10:52;;;;;;;2.54;2.21;;;;;;;4.35;95.71;98362.53;1934667;84;20928;-76
2021/12/01 04:13:56;;;;;;;2.51;2.31;;;;;;;4.37;95.43;98352.28;1934426;84;20372;-76
2021/12/01 04:16:59;;;;;;;2.51;2.31;;;;;;;4.36;95.05;98347.97;1933579;81;22842;-76
2021/12/01 04:20:03;;;;;;;4.57;2.14;;;;;;;4.37;94.84;98355.69;1934562;84;20390;-76
2021/12/01 04:23:06;;;;;;;2.69;2.49;;;;;;;4.36;94.69;98343.69;1934926;84;20340;-76
2021/12/01 04:26:13;;;;;;;5.82;2.35;;;;;;;4.37;94.83;98336.84;1934524;84;20437;-76
2021/12/01 04:29:16;;;;;;;2.28;2.09;;;;;;;4.35;94.84;98321.44;1931908;84;20354;-76
2021/12/01 04:32:18;;;;;;;3.60;3.30;;;;;;;4.34;94.82;98317.16;1934010;81;22517;-76
2021/12/01 04:35:23;;;;;;;5.31;2.54;;;;;;;4.28;94.89;98309.41;1934564;84;20340;-76
2021/12/01 04:38:26;;;;;;;2.72;2.45;;;;;;;4.30;94.95;98292.28;1934892;84;20352;-76
2021/12/01 04:41:36;;;;;;;2.79;2.34;;;;;;;4.28;94.81;98293.97;1935439;84;20385;-76
2021/12/01 04:44:39;;;;;;;2.94;2.55;;;;;;;4.31;94.87;98275.13;1934336;84;20445;-76
2021/12/01 04:47:47;;;;;;;3.31;2.36;;;;;;;4.30;94.88;98279.41;1933323;81;25013;-76
2021/12/01 04:50:50;;;;;;;4.54;2.60;;;;;;;4.33;94.84;98276.03;1935163;84;20336;-76
2021/12/01 04:53:53;;;;;;;4.40;2.54;;;;;;;4.30;94.60;98260.56;1935250;84;20203;-76
2021/12/01 04:56:56;;;;;;;2.65;2.45;;;;;;;4.34;94.71;98257.19;1935575;84;20344;-77
2021/12/01 04:59:59;;;;;;;4.79;2.81;;;;;;;4.35;94.63;98246.06;1931651;84;20368;-76
2021/12/01 05:03:05;;;;;;;3.66;2.26;;;;;;;4.35;94.73;98252.03;1934924;81;22228;-77
2021/12/01 05:06:24;;;;;;;2.88;2.01;;;;;;;4.35;94.69;98244.34;1935201;84;20482;-76
2021/12/01 05:09:26;;;;;;;2.90;2.61;;;;;;;4.35;94.68;98233.22;1931169;84;20340;-76
2021/12/01 05:12:30;;;;;;;2.14;1.89;;;;;;;4.38;94.75;98220.34;1935344;84;21511;-76
2021/12/01 05:15:32;;;;;;;3.29;2.50;;;;;;;4.40;94.65;98203.22;1933731;82;20970;-75
2021/12/01 05:18:35;;;;;;;3.06;2.40;;;;;;;4.42;94.72;98210.06;1935854;84;20372;-76
2021/12/01 05:21:40;;;;;;;2.44;2.22;;;;;;;4.43;94.70;98204.06;1936440;84;20356;-76
2021/12/01 05:24:42;;;;;;;2.51;2.20;;;;;;;4.44;94.69;98197.22;1935230;84;20464;-76
2021/12/01 05:27:45;;;;;;;2.05;1.83;;;;;;;4.43;94.75;98196.38;1936336;84;20970;-76
2021/12/01 05:30:48;;;;;;;3.81;2.17;;;;;;;4.45;94.74;98189.50;1933409;81;22450;-76
2021/12/01 05:33:51;;;;;;;2.63;2.10;;;;;;;4.44;94.71;98192.94;1935342;84;21259;-76
2021/12/01 05:36:59;;;;;;;3.88;2.15;;;;;;;4.42;94.73;98194.66;1934396;84;20339;-76
2021/12/01 05:40:03;;;;;;;1.73;1.63;;;;;;;4.45;94.76;98184.38;1938427;84;20864;-77
2021/12/01 05:43:05;;;;;;;2.28;2.05;;;;;;;4.44;94.68;98182.66;1935448;84;20183;-77
2021/12/01 05:46:08;;;;;;;2.34;2.14;;;;;;;4.47;94.70;98169.81;1935431;82;23729;-77
2021/12/01 05:49:11;;;;;;;2.24;2.01;;;;;;;4.45;94.63;98155.25;1936040;84;20495;-77
2021/12/01 05:52:15;;;;;;;1.99;1.71;;;;;;;4.44;94.57;98138.97;1936177;84;20344;-76
2021/12/01 05:55:17;;;;;;;1.99;1.79;;;;;;;4.49;94.45;98142.41;1936445;84;21237;-79
2021/12/01 05:58:20;;;;;;;2.11;1.80;;;;;;;4.50;94.58;98130.41;1939595;84;20352;-79
2021/12/01 06:01:23;;;;;;;1.96;1.74;;;;;;;4.52;94.64;98136.41;1938470;81;23592;-79
2021/12/01 06:04:25;;;;;;;5.55;2.31;;;;;;;4.52;94.81;98127.00;1939193;84;20385;-79
2021/12/01 06:07:29;;;;;;;1.56;1.30;;;;;;;4.50;94.82;98123.56;1937354;84;20351;-78
2021/12/01 06:10:32;;;;;;;2.05;1.52;;;;;;;4.52;94.90;98116.72;1937046;84;20344;-78
2021/12/01 06:13:35;;;;;;;2.69;1.60;;;;;;;4.54;95.02;98109.00;1936986;84;20328;-78
2021/12/01 06:16:38;;;;;;;2.61;1.69;;;;;;;4.54;95.11;98099.56;1934553;81;33161;-77
2021/12/01 06:19:41;;;;;;;1.98;1.69;;;;;;;4.58;95.21;98094.41;1936131;84;20360;-77
2021/12/01 06:22:44;;;;;;;1.61;1.44;;;;;;;4.57;95.44;98095.28;1937261;84;21287;-79
2021/12/01 06:25:47;;;;;;;2.16;1.26;;;;;;;4.56;95.67;98079.00;1939978;84;20420;-79
2021/12/01 06:28:50;;;;;;;2.14;1.52;;;;;;;4.58;95.87;98071.28;1934614;84;20344;-79
2021/12/01 06:31:53;;;;;;;2.61;1.74;;;;;;;4.61;95.96;98071.28;1936945;81;21156;-79
2021/12/01 06:34:55;;;;;;;1.34;1.24;;;;;;;4.60;96.02;98072.13;1938785;84;20413;-79
2021/12/01 06:37:58;;;;;;;2.36;1.50;;;;;;;4.61;96.18;98058.41;1935384;84;20914;-79
2021/12/01 06:41:01;;;;;;;1.74;1.30;;;;;;;4.60;96.25;98055.00;1937613;84;20512;-79
2021/12/01 06:44:04;;;;;;;1.70;1.56;;;;;;;4.65;96.34;98054.97;1933860;84;21347;-80
2021/12/01 06:47:07;;;;;;;1.44;1.17;;;;;;;4.64;96.38;98041.25;1936682;81;24516;-78
2021/12/01 06:50:11;;;;;;;1.11;1.01;;;;;;;4.66;96.52;98046.41;1937009;84;20344;-79
2021/12/01 06:58:15;;;;;;;1.08;1.03;;;;;;;4.70;96.66;98033.56;1933767;84;21493;-80
2021/12/01 07:20:06;;;;;;;1.61;1.08;;;;;;;4.76;97.67;98012.97;1934824;73;20891;-78
2021/12/01 07:36:54;;;;;;;1.76;1.66;;;;;;;4.83;97.63;97967.50;2089344;73;20411;-80
2021/12/01 07:44:13;;;;;;;1.49;1.13;;;;;;;4.94;97.34;97936.59;1941996;73;20441;-80
2021/12/01 07:48:55;;;;;;;2.59;1.49;;;;;;;4.94;97.20;97937.44;1933569;84;20817;-80
2021/12/01 07:52:12;;;;;;;0.94;0.94;;;;;;;4.97;97.12;97921.13;1934520;84;20345;-79
2021/12/01 07:55:18;;;;;;;0.93;0.93;;;;;;;5.02;96.94;97898.81;1929823;84;20371;-78
2021/12/01 07:58:22;;;;;;;1.19;0.94;;;;;;;5.06;96.94;97885.09;1932754;84;20236;-77
2021/12/01 08:01:25;;;;;;;0.95;0.75;;;;;;;5.07;96.84;97881.66;1931887;84;20363;-77
2021/12/01 08:04:28;;;;;;;2.04;1.15;;;;;;;5.09;96.83;97877.34;1933516;84;20368;-78
2021/12/01 08:07:34;;;;;;;1.41;1.14;;;;;;;5.12;96.87;97875.59;1932691;84;20850;-79
2021/12/01 08:10:46;;;;;;;1.69;1.05;;;;;;;5.11;97.05;97870.47;1933099;84;20364;-77
2021/12/01 08:13:49;;;;;;;1.21;1.10;;;;;;;5.18;96.86;97868.69;1932505;84;21036;-77
2021/12/01 08:16:52;;;;;;;0.90;0.90;;;;;;;5.21;97.00;97855.81;1931524;81;24307;-78
2021/12/01 08:19:57;;;;;;;0.90;0.90;;;;;;;5.23;97.03;97857.50;1933775;84;20401;-77
2021/12/01 08:23:00;;;;;;;1.52;0.88;;;;;;;5.30;96.75;97850.59;1935083;84;20383;-79
2021/12/01 08:26:03;;;;;;;1.01;0.80;;;;;;;5.35;96.71;97848.81;1934260;84;20357;-77
2021/12/01 08:29:06;;;;;;;0.88;0.80;;;;;;;5.39;96.68;97847.94;1932201;84;20845;-78
2021/12/01 08:32:08;;;;;;;0.88;0.70;;;;;;;5.40;96.69;97834.22;1932689;81;20440;-78
2021/12/01 08:35:15;;;;;;;0.63;0.63;;;;;;;5.45;96.53;97823.00;1933860;84;20469;-78
2021/12/01 08:38:19;;;;;;;0.64;0.60;;;;;;;5.44;96.42;97821.28;1933772;84;20359;-78
2021/12/01 08:41:22;;;;;;;0.95;0.50;;;;;;;5.48;96.46;97819.53;1932268;84;20320;-77
2021/12/01 08:44:24;;;;;;;0.49;0.49;;;;;;;5.53;96.34;97815.19;1931516;84;20360;-79
2021/12/01 08:47:53;;;;;;;0.89;0.80;;;;;;;5.55;96.21;97816.03;1926983;81;27936;-78
2021/12/01 08:50:58;;;;;;;0.50;0.50;;;;;;;5.58;96.36;97810.88;1927700;84;20308;-76
2021/12/01 08:54:00;;;;;;;0.68;0.56;;;;;;;5.60;96.41;97805.72;1930985;84;20413;-77
2021/12/01 08:57:04;;;;;;;1.25;0.70;;;;;;;5.61;96.51;97789.38;1931002;84;20348;-77
2021/12/01 09:00:07;;;;;;;0.50;0.50;;;;;;;5.62;96.57;97798.81;1926655;84;20389;-77
2021/12/01 09:03:11;;;;;;;0.41;0.40;;;;;;;5.65;96.65;97799.63;1931358;81;22420;-77
2021/12/01 09:06:14;;;;;;;0.76;0.49;;;;;;;5.68;96.58;97793.59;1931850;84;20865;-77
2021/12/01 09:09:20;;;;;;;0.65;0.50;;;;;;;5.71;96.54;97789.25;1931881;84;20352;-77
2021/12/01 09:12:23;;;;;;;0.50;0.50;;;;;;;5.71;96.52;97783.25;1931421;84;20409;-77
2021/12/01 09:15:26;;;;;;;0.50;0.50;;;;;;;5.74;96.58;97766.06;1931968;81;26859;-77
2021/12/01 09:18:29;;;;;;;1.30;0.56;;;;;;;5.72;96.53;97766.94;1931906;84;20348;-78
2021/12/01 09:21:32;;;;;;;1.02;0.60;;;;;;;5.72;96.56;97772.09;1931871;84;20357;-77
2021/12/01 09:24:35;;;;;;;1.49;0.60;;;;;;;5.75;96.49;97764.34;1928322;84;20397;-76
2021/12/01 09:27:38;;;;;;;0.60;0.60;;;;;;;5.74;96.47;97752.31;1932648;84;20351;-76
2021/12/01 09:30:42;;;;;;;0.82;0.60;;;;;;;5.80;96.67;97751.41;1926433;81;21447;-76
2021/12/01 09:33:46;;;;;;;0.55;0.55;;;;;;;5.80;96.52;97736.81;1931586;84;20357;-76
2021/12/01 09:36:49;;;;;;;0.63;0.50;;;;;;;5.80;96.60;97736.81;1930959;84;20360;-77
2021/12/01 09:39:51;;;;;;;0.70;0.60;;;;;;;5.83;96.63;97726.47;1931381;84;20421;-77
2021/12/01 09:42:59;;;;;;;1.21;0.60;;;;;;;5.89;96.75;97728.09;1931394;84;20883;-77
2021/12/01 09:46:04;;;;;;;0.52;0.52;;;;;;;5.93;96.85;97717.78;1929541;81;23799;-77
2021/12/01 09:49:07;;;;;;;0.65;0.61;;;;;;;5.97;96.64;97722.03;1931040;84;20433;-77
2021/12/01 09:52:11;;;;;;;1.11;0.65;;;;;;;6.00;96.63;97708.25;1927435;84;20352;-78
2021/12/01 13:04:50;;;;;;;0.36;0.36;;;;;;;6.51;96.00;97380.97;2035560;73;20738;-78
2021/12/01 13:07:55;;;;;;;1.71;0.30;;;;;;;6.50;96.07;97374.09;1934858;84;20396;-77
2021/12/01 13:11:09;;;;;;;0.71;0.40;;;;;;;6.53;96.29;97380.03;1936193;84;20364;-77
2021/12/01 13:14:11;;;;;;;0.30;0.30;;;;;;;6.53;96.26;97371.47;1935483;84;20364;-77
2021/12/01 13:17:20;;;;;;;0.31;0.31;;;;;;;6.53;96.37;97374.03;1934073;81;21372;-78
2021/12/01 13:20:31;;;;;;;0.40;0.40;;;;;;;6.58;96.68;97367.91;1935210;84;20384;-77
2021/12/01 13:23:36;;;;;;;0.45;0.40;;;;;;;6.60;96.63;97376.44;1931527;84;20228;-78
2021/12/01 13:26:39;;;;;;;0.34;0.34;;;;;;;6.64;96.73;97369.47;1935225;84;21148;-78
2021/12/01 13:29:41;;;;;;;0.30;0.30;;;;;;;6.63;96.74;97360.06;1935048;84;20453;-77
2021/12/01 13:32:44;;;;;;;0.35;0.30;;;;;;;6.65;96.71;97348.84;1933721;82;25142;-77
2021/12/01 13:35:47;;;;;;;0.40;0.35;;;;;;;6.65;96.70;97337.69;1934665;84;20352;-78
2021/12/01 13:38:59;;;;;;;1.23;0.30;;;;;;;6.62;96.69;97338.56;1936405;84;21020;-77
2021/12/01 13:42:06;;;;;;;0.55;0.40;;;;;;;6.65;96.91;97340.28;1933227;84;20372;-78
2021/12/01 13:45:09;;;;;;;0.45;0.38;;;;;;;6.63;97.01;97342.00;1935938;84;20378;-78
2021/12/01 13:48:12;;;;;;;0.64;0.30;;;;;;;6.64;97.09;97331.69;1935846;81;28021;-78
2021/12/01 13:51:16;;;;;;;0.30;0.30;;;;;;;6.67;97.17;97330.75;1932643;84;20406;-77
2021/12/01 13:54:22;;;;;;;0.38;0.34;;;;;;;6.70;97.16;97340.16;1934161;84;20367;-77
2021/12/01 13:57:24;;;;;;;0.69;0.40;;;;;;;6.72;97.25;97346.13;1933473;84;20423;-76
2021/12/01 14:00:37;;;;;;;0.77;0.32;;;;;;;6.73;97.36;97345.25;1931810;82;24166;-77
2021/12/01 14:03:52;;;;;;;0.50;0.30;;;;;;;6.77;97.44;97344.28;1933718;84;20463;-76
2021/12/01 14:06:57;;;;;;;1.23;0.40;;;;;;;6.77;97.61;97341.72;1932758;84;20348;-76
2021/12/01 14:10:14;;;;;;;0.86;0.41;;;;;;;6.77;97.59;97339.97;1933158;84;20581;-76
2021/12/01 14:13:21;;;;;;;0.35;0.35;;;;;;;6.79;97.66;97352.84;1930781;84;20995;-76
2021/12/01 14:16:28;;;;;;;;;;;;;;;6.78;97.82;97351.13;1928521;81;25371;-76
2021/12/01 14:19:33;;;;;;;0.30;0.30;;;;;;;6.80;98.03;97347.63;1930415;84;20201;-76
2021/12/01 14:22:35;;;;;;;0.30;0.30;;;;;;;6.83;98.04;97352.75;1931453;84;21770;-75
2021/12/01 14:25:48;;;;;;;1.69;0.39;;;;;;;6.88;97.98;97353.50;1932270;84;21198;-75
2021/12/01 14:28:56;;;;;;;0.20;0.20;;;;;;;6.93;97.97;97354.22;1932474;84;20382;-76
2021/12/01 14:32:04;;;;;;;0.45;0.30;;;;;;;7.00;98.18;97354.06;1931058;81;23520;-76
2021/12/01 14:35:07;;;;;;;0.20;0.20;;;;;;;7.04;98.05;97350.56;1932688;84;20236;-74
2021/12/01 14:38:15;;;;;;;0.29;0.22;;;;;;;7.07;97.98;97364.25;1931846;84;20378;-75
2021/12/01 14:41:17;;;;;;;0.20;0.20;;;;;;;7.14;98.03;97357.19;1931438;84;20425;-75
2021/12/01 14:44:26;;;;;;;0.41;0.20;;;;;;;7.18;97.79;97362.28;1933959;84;20340;-75
2021/12/01 14:47:29;;;;;;;0.30;0.30;;;;;;;7.23;97.69;97351.81;1929549;81;22298;-75
2021/12/01 14:50:34;;;;;;;0.26;0.26;;;;;;;7.26;97.62;97365.50;1930315;84;20242;-74
2021/12/01 14:53:39;;;;;;;1.42;0.30;;;;;;;7.28;97.43;97374.06;1931056;84;20381;-75
2021/12/01 14:57:20;;;;;;;0.20;0.20;;;;;;;7.28;97.25;97379.22;1930751;84;20347;-75
2021/12/01 15:00:29;;;;;;;1.08;0.30;;;;;;;7.30;97.19;97384.34;1928378;82;29110;-75
2021/12/01 15:03:43;;;;;;;0.65;0.20;;;;;;;7.33;97.24;97384.25;1930939;84;20378;-75
2021/12/01 15:06:51;;;;;;;0.68;0.50;;;;;;;7.34;97.24;97390.28;1931014;84;20348;-75
2021/12/01 15:09:53;;;;;;;0.35;0.20;;;;;;;7.36;97.27;97398.81;1930478;84;20405;-75
2021/12/01 15:13:16;;;;;;;0.20;0.20;;;;;;;7.36;97.15;97401.41;1931016;84;20858;-75
2021/12/01 15:16:23;;;;;;;0.20;0.20;;;;;;;7.37;97.06;97408.31;1929794;81;21013;-75
2021/12/01 15:20:03;;;;;;;0.46;0.29;;;;;;;7.37;97.14;97393.66;1930429;84;20482;-75
2021/12/01 15:23:10;;;;;;;0.19;0.19;;;;;;;7.40;96.94;97408.22;1930737;84;20405;-75
2021/12/01 15:26:15;;;;;;;0.35;0.20;;;;;;;7.37;96.90;97406.56;1930089;84;20478;-75
2021/12/01 15:29:20;;;;;;;1.21;0.20;;;;;;;7.38;96.94;97408.25;1930154;84;20362;-75
2021/12/01 15:32:37;;;;;;;0.20;0.20;;;;;;;7.37;96.86;97416.88;1929973;82;22756;-75
2021/12/01 15:35:41;;;;;;;0.29;0.29;;;;;;;7.36;96.78;97398.81;1930196;84;20413;-75
2021/12/01 15:38:44;;;;;;;0.47;0.29;;;;;;;7.33;96.81;97389.44;1931202;84;20907;-75
2021/12/01 15:41:49;;;;;;;1.14;0.30;;;;;;;7.33;96.76;97393.75;1926300;84;20360;-76
2021/12/01 15:44:51;;;;;;;1.98;0.30;;;;;;;7.32;96.60;97394.63;1930447;84;20398;-75
2021/12/01 15:47:54;;;;;;;0.30;0.20;;;;;;;7.35;96.42;97382.50;1929236;81;21870;-75
2021/12/01 15:50:57;;;;;;;0.34;0.21;;;;;;;7.30;95.98;97407.56;1930470;84;20413;-75
2021/12/01 15:54:00;;;;;;;1.38;0.30;;;;;;;7.23;95.77;97401.72;1930118;84;20474;-75
2021/12/01 15:57:03;;;;;;;0.74;0.30;;;;;;;7.19;95.66;97402.69;1931266;84;20351;-75
2021/12/01 16:00:08;;;;;;;0.44;0.30;;;;;;;7.16;95.52;97409.63;1929252;84;20356;-75
2021/12/01 16:03:11;;;;;;;1.79;0.30;;;;;;;7.14;95.56;97414.81;1930867;81;29802;-76
2021/12/01 16:06:16;;;;;;;1.33;0.30;;;;;;;7.17;95.62;97417.31;1931677;84;20377;-75
2021/12/01 16:09:21;;;;;;;0.54;0.50;;;;;;;7.16;95.50;97430.25;1927273;84;20856;-75
2021/12/01 16:12:24;;;;;;;0.39;0.38;;;;;;;7.20;95.52;97447.41;1931217;84;20394;-75
2021/12/01 16:15:27;;;;;;;0.68;0.30;;;;;;;7.22;95.48;97453.38;1928749;81;55075;-76
2021/12/01 16:18:33;;;;;;;0.81;0.40;;;;;;;7.21;95.44;97456.84;1931043;84;20328;-76
2021/12/01 16:21:36;;;;;;;0.30;0.30;;;;;;;7.25;95.36;97466.22;1931710;84;20413;-76
2021/12/01 16:24:38;;;;;;;1.96;0.65;;;;;;;7.26;95.28;97473.06;1930386;84;21056;-76
2021/12/01 16:27:42;;;;;;;0.54;0.20;;;;;;;7.26;95.20;97471.34;1928015;84;20941;-76
2021/12/01 16:30:44;;;;;;;0.55;0.30;;;;;;;7.28;95.03;97479.88;1928612;84;20547;-76
2021/12/01 16:33:56;;;;;;;7.05;5.07;;;;;;;7.26;94.44;97480.81;1928230;84;20836;-76
2021/12/01 16:37:44;;;;;;;2.88;1.80;;;;;;;7.22;93.66;97485.19;1931161;84;20984;-76
2021/12/01 16:45:22;;;;;;;1.21;0.40;;;;;;;7.05;91.43;97494.19;1923984;84;20541;-76
2021/12/01 16:48:29;;;;;;;1.84;1.29;;;;;;;6.93;90.39;97503.88;1924670;84;20372;-76
2021/12/01 16:51:33;;;;;;;1.21;0.70;;;;;;;6.85;90.44;97502.34;1929428;84;20379;-76
2021/12/01 16:54:37;;;;;;;0.54;0.50;;;;;;;6.79;90.08;97503.28;1926144;84;20383;-76
2021/12/01 16:58:16;;;;;;;0.88;0.44;;;;;;;6.76;90.35;97507.66;1922624;84;20370;-76
2021/12/01 17:01:37;;;;;;;1.08;0.71;;;;;;;6.70;90.68;97508.63;1928032;84;20362;-76
2021/12/01 17:04:55;;;;;;;0.50;0.30;;;;;;;6.67;90.96;97511.28;1924978;84;20357;-76
2021/12/01 17:08:14;;;;;;;1.08;0.20;;;;;;;6.63;90.70;97510.47;1925867;84;20562;-76
2021/12/01 17:11:18;;;;;;;0.40;0.30;;;;;;;6.60;90.69;97512.25;1926610;84;20341;-76
2021/12/01 17:14:22;;;;;;;0.82;0.20;;;;;;;6.56;91.17;97523.50;1927263;84;20212;-76
2021/12/01 17:17:24;;;;;;;2.11;0.31;;;;;;;6.53;91.57;97521.00;1926551;81;21222;-76
2021/12/01 17:29:15;;;;;;;0.25;0.20;;;;;;;6.42;93.08;97523.75;1938274;73;20505;-81
2021/12/01 17:32:59;;;;;;;0.20;0.20;;;;;;;6.39;93.53;97523.81;1936928;84;20324;-81
2021/12/01 17:36:29;;;;;;;0.15;0.15;;;;;;;6.33;94.02;97524.78;1932434;84;20800;-81
2021/12/01 17:49:12;;;;;;;1.21;0.40;;;;;;;6.48;96.45;97521.09;1937177;73;20393;-79
2021/12/01 17:55:59;;;;;;;0.44;0.40;;;;;;;6.64;97.01;97514.78;1932146;73;20487;-80
2021/12/01 17:59:03;;;;;;;0.90;0.41;;;;;;;6.71;96.89;97530.97;1931511;84;20355;-80
2021/12/01 18:02:20;;;;;;;0.51;0.38;;;;;;;6.74;96.63;97532.63;1929073;84;20357;-80
2021/12/01 18:05:30;;;;;;;0.84;0.34;;;;;;;6.75;96.51;97534.31;1931238;84;20383;-80
2021/12/01 18:08:55;;;;;;;0.55;0.30;;;;;;;6.71;96.14;97530.97;1930395;84;20373;-80
2021/12/01 18:11:58;;;;;;;3.25;0.40;;;;;;;6.70;95.78;97546.47;1933875;84;21134;-80
2021/12/01 18:15:16;;;;;;;1.89;0.65;;;;;;;6.66;95.39;97543.94;1930281;84;20990;-80
2021/12/01 18:18:20;;;;;;;0.44;0.22;;;;;;;6.55;94.95;97543.28;1926293;82;41476;-79
2021/12/01 18:22:23;;;;;;;0.20;0.20;;;;;;;6.54;94.70;97549.31;1930583;84;21349;-79
2021/12/01 18:25:40;;;;;;;0.52;0.20;;;;;;;6.53;94.31;97549.34;1931823;84;20401;-80
2021/12/01 18:28:55;;;;;;;0.39;0.20;;;;;;;6.46;93.76;97556.31;1931495;84;20377;-79
2021/12/01 18:36:24;;;;;;;0.30;0.20;;;;;;;6.29;93.17;97563.53;1937043;73;20399;-80
2021/12/01 18:44:00;;;;;;;0.91;0.27;;;;;;;6.16;92.63;97572.34;1937465;73;20372;-81
2021/12/01 18:48:19;;;;;;;0.10;0.10;;;;;;;6.15;92.62;97578.38;1925582;82;95751;-80
2021/12/01 18:51:39;;;;;;;0.19;0.10;;;;;;;6.10;92.58;97573.25;1930173;84;20390;-80
2021/12/01 18:59:18;;;;;;;0.10;0.10;;;;;;;6.02;92.58;97590.56;1932991;84;20330;-80
2021/12/01 19:02:29;;;;;;;0.25;0.20;;;;;;;6.01;92.76;97597.47;1935885;82;26450;-81
2021/12/01 19:05:33;;;;;;;0.20;0.20;;;;;;;6.03;92.88;97606.00;1930910;84;20381;-80
2021/12/01 19:08:37;;;;;;;0.55;0.20;;;;;;;6.03;92.82;97605.16;1930928;84;20337;-80
2021/12/01 19:11:40;;;;;;;0.31;0.10;;;;;;;6.00;93.00;97615.50;1934628;84;20408;-80
2021/12/01 19:14:44;;;;;;;0.20;0.20;;;;;;;6.01;92.83;97622.38;1939340;84;20341;-81
2021/12/01 19:21:11;;;;;;;1.40;0.29;;;;;;;5.99;92.89;97627.53;1950848;73;20450;-80
2021/12/01 19:24:14;;;;;;;1.51;0.20;;;;;;;5.94;92.75;97628.50;1943445;84;20619;-80
2021/12/01 19:27:20;;;;;;;0.35;0.28;;;;;;;5.90;92.77;97631.97;1939774;84;20441;-80
2021/12/01 19:30:24;;;;;;;0.32;0.20;;;;;;;5.86;92.66;97643.16;1934881;84;20449;-80
2021/12/01 19:33:28;;;;;;;0.20;0.20;;;;;;;5.82;92.82;97642.34;1939249;84;20372;-80
2021/12/01 19:36:32;;;;;;;0.52;0.26;;;;;;;5.76;92.73;97642.44;1941903;84;20453;-80
2021/12/01 19:39:39;;;;;;;1.25;0.80;;;;;;;5.71;93.02;97644.22;1943113;84;20387;-81
2021/12/01 19:42:43;;;;;;;16.56;8.77;;;;;;;5.69;93.21;97645.94;1942613;84;20352;-80
2021/12/01 19:46:01;;;;;;;5.46;3.20;;;;;;;5.64;93.24;97660.63;1942984;81;40818;-81
2021/12/01 19:49:05;;;;;;;5.07;4.09;;;;;;;5.60;93.36;97667.53;1943865;84;20284;-80
2021/12/01 19:52:09;;;;;;;0.90;0.90;;;;;;;5.53;93.24;97670.19;1941211;84;20754;-80
2021/12/01 19:55:13;;;;;;;1.95;0.98;;;;;;;5.46;93.24;97670.28;1940780;84;20289;-80
2021/12/01 19:58:18;;;;;;;0.55;0.55;;;;;;;5.41;93.30;97678.94;1941015;84;20341;-80
2021/12/01 20:01:21;;;;;;;0.95;0.50;;;;;;;5.35;93.54;97677.25;1941195;84;20872;-80
2021/12/01 20:04:24;;;;;;;1.56;0.60;;;;;;;5.29;93.54;97682.47;1940243;84;20506;-80
2021/12/01 20:07:27;;;;;;;0.40;0.40;;;;;;;5.24;93.74;97683.41;1935986;84;20474;-80
2021/12/01 20:10:31;;;;;;;0.46;0.44;;;;;;;5.21;93.84;97683.44;1940492;84;20452;-80
2021/12/01 20:13:37;;;;;;;1.00;0.57;;;;;;;5.15;93.82;97686.91;1932420;84;20349;-75
2021/12/01 20:16:42;;;;;;;0.70;0.40;;;;;;;5.11;93.89;97685.25;1925398;81;30108;-75
2021/12/01 20:19:47;;;;;;;1.31;0.40;;;;;;;5.09;93.93;97699.84;1930386;84;20351;-75
2021/12/01 20:22:51;;;;;;;2.25;0.50;;;;;;;5.02;93.53;97701.59;1927127;84;20355;-75
2021/12/01 20:25:54;;;;;;;1.42;0.30;;;;;;;4.97;93.72;97698.22;1926651;84;20366;-76
2021/12/01 20:29:00;;;;;;;2.09;1.29;;;;;;;4.96;93.80;97708.53;1930327;84;20758;-75
2021/12/01 20:32:05;;;;;;;52.05;30.66;;;;;;;4.86;93.58;97728.34;1930280;84;20384;-75
2021/12/01 20:35:15;;;;;;;10.05;7.15;;;;;;;4.83;93.82;97723.22;1930771;84;20408;-75
2021/12/01 20:38:20;;;;;;;7.14;6.30;;;;;;;4.81;94.07;97720.66;1929945;84;20360;-75
2021/12/01 20:41:36;;;;;;;3.96;3.65;;;;;;;4.81;94.12;97719.81;1927054;84;20380;-75
2021/12/01 20:44:41;;;;;;;2.59;2.39;;;;;;;4.77;94.12;97738.72;1930835;84;20360;-75
2021/12/01 21:02:31;;;;;;;1.36;0.51;;;;;;;4.71;94.48;97752.47;1910484;85;20369;-75
2021/12/01 21:06:16;;;;;;;;;;;;;;;;;;;;;
2021/12/01 21:09:34;;;;;;;1.50;0.61;;;;;;;4.75;94.94;97759.28;1931007;84;20461;-76
2021/12/01 21:13:30;;;;;;;0.74;0.40;;;;;;;4.77;95.05;97761.84;1926209;84;20416;-76
2021/12/01 21:17:33;;;;;;;4.14;0.71;;;;;;;4.80;95.16;97754.94;1942488;84;20419;-82
2021/12/01 21:21:21;;;;;;;2.39;0.47;;;;;;;4.82;95.19;97750.66;1946692;84;20432;-81
2021/12/01 21:24:30;;;;;;;3.85;0.85;;;;;;;4.84;95.23;97756.63;1950152;83;20358;-81
2021/12/01 21:27:37;;;;;;;2.03;0.70;;;;;;;4.88;95.13;97760.06;1944003;84;20367;-80
2021/12/01 21:30:43;;;;;;;3.25;0.60;;;;;;;4.93;94.94;97771.16;1949477;84;20391;-81
2021/12/01 21:33:58;;;;;;;1.67;0.50;;;;;;;4.92;94.66;97768.59;1945300;84;20328;-80
2021/12/01 21:40:36;;;;;;;2.15;0.59;;;;;;;4.97;94.52;97767.69;2000019;73;20063;-81
2021/12/01 21:43:39;;;;;;;1.05;0.64;;;;;;;5.00;94.67;97766.78;1946315;84;20405;-81
2021/12/01 21:46:42;;;;;;;1.19;0.60;;;;;;;4.99;94.66;97760.78;1948137;84;20304;-81
2021/12/01 21:49:45;;;;;;;2.15;0.60;;;;;;;5.04;94.72;97763.34;1945443;84;20510;-80
2021/12/01 21:52:48;;;;;;;1.36;0.90;;;;;;;5.05;94.66;97759.91;1944487;84;20474;-80
2021/12/01 21:55:52;;;;;;;1.55;0.94;;;;;;;5.06;94.83;97765.03;1943746;84;20388;-80
2021/12/01 21:58:58;;;;;;;2.28;0.77;;;;;;;5.09;94.74;97769.31;1946710;84;20370;-80
2021/12/01 22:02:03;;;;;;;2.88;0.76;;;;;;;5.07;94.88;97768.47;1943393;84;20897;-79
2021/12/01 22:05:08;;;;;;;3.29;0.80;;;;;;;5.10;95.37;97763.28;1936703;84;20374;-78
2021/12/01 22:08:11;;;;;;;5.16;0.60;;;;;;;5.16;95.38;97768.38;1939946;84;20336;-79
2021/12/01 22:11:14;;;;;;;2.70;0.86;;;;;;;5.16;95.53;97765.78;1938724;84;20348;-80
2021/12/01 22:14:17;;;;;;;3.54;0.77;;;;;;;5.13;95.40;97764.09;1936511;84;21108;-79
2021/12/01 22:17:20;;;;;;;1.09;0.80;;;;;;;5.13;95.62;97765.81;1932741;84;20394;-79
2021/12/01 22:20:26;;;;;;;2.03;0.70;;;;;;;5.14;95.79;97763.25;1936522;84;20429;-79
2021/12/01 22:23:32;;;;;;;2.17;0.63;;;;;;;5.18;95.92;97770.91;1933201;84;20356;-80
2021/12/01 22:26:36;;;;;;;1.34;0.70;;;;;;;5.20;96.06;97772.59;1940890;84;20948;-79
2021/12/01 22:29:40;;;;;;;4.35;1.29;;;;;;;5.24;96.20;97776.88;1936878;84;20495;-79
2021/12/01 22:32:44;;;;;;;2.14;0.70;;;;;;;5.25;96.12;97776.03;1936964;84;20402;-79